Time;durP1;ratioP1;P1;durP2;ratioP2;P2;SDS_P1;SDS_P2;PMS_P1;PMS_P2;Temp;Humidity;BMP_temperature;BMP_pressure;BME280_temperature;BME280_humidity;BME280_pressure;Samples;Min_cycle;Max_cycle;Signal;HPM_P1;HPM_P2
2022/05/04 00:00:00;;;;;;;10.52;3.35;;;13.30;78.80;;;;;;4976881;28;20030;-84
2022/05/04 00:02:25;;;;;;;12.38;2.50;;;13.30;78.90;;;;;;4994583;28;20030;-83
2022/05/04 00:04:51;;;;;;;9.40;2.88;;;13.20;78.90;;;;;;4976802;28;20031;-84
2022/05/04 00:07:17;;;;;;;10.98;2.53;;;13.20;78.90;;;;;;4976691;28;20042;-84
2022/05/04 00:09:43;;;;;;;11.25;3.22;;;13.20;79.00;;;;;;4976613;28;20069;-84
2022/05/04 00:12:09;;;;;;;9.40;2.80;;;13.20;79.00;;;;;;4961020;28;20065;-84
2022/05/04 00:14:35;;;;;;;9.88;2.78;;;13.20;79.00;;;;;;4960505;28;20038;-86
2022/05/04 00:17:00;;;;;;;9.57;2.60;;;13.10;78.90;;;;;;4993873;28;20029;-84
2022/05/04 00:19:26;;;;;;;12.98;3.40;;;13.10;78.90;;;;;;4944809;28;20026;-84
2022/05/04 00:21:52;;;;;;;8.02;2.40;;;13.10;79.00;;;;;;4944709;28;20042;-84
2022/05/04 00:24:19;;;;;;;9.85;2.40;;;13.10;79.20;;;;;;4944731;28;20530;-84
2022/05/04 00:26:46;;;;;;;8.32;2.60;;;13.10;79.20;;;;;;4960933;28;20445;-84
2022/05/04 00:29:12;;;;;;;14.43;2.80;;;13.10;79.10;;;;;;4994065;28;20037;-84
2022/05/04 00:31:38;;;;;;;8.02;2.42;;;13.10;79.20;;;;;;4960314;28;20026;-85
2022/05/04 00:34:03;;;;;;;6.95;2.35;;;13.00;79.20;;;;;;4976584;28;20031;-84
2022/05/04 00:36:29;;;;;;;9.50;2.45;;;13.00;79.20;;;;;;4976588;28;20030;-84
2022/05/04 00:38:55;;;;;;;8.02;2.40;;;13.00;79.30;;;;;;4993649;28;20036;-84
2022/05/04 00:41:20;;;;;;;8.13;2.50;;;13.00;79.50;;;;;;4944463;28;20041;-85
2022/05/04 00:43:54;;;;;;;7.35;2.40;;;13.00;79.60;;;;;;4976449;28;20026;-84
2022/05/04 00:46:21;;;;;;;9.38;2.75;;;13.00;79.60;;;;;;4976538;28;20386;-84
2022/05/04 00:48:47;;;;;;;7.13;2.17;;;13.00;79.70;;;;;;4993693;28;20093;-84
2022/05/04 00:51:12;;;;;;;8.50;2.17;;;12.90;79.70;;;;;;4976417;28;20029;-84
2022/05/04 00:53:40;;;;;;;8.73;3.00;;;12.90;79.70;;;;;;4960388;28;20106;-87
2022/05/04 00:56:08;;;;;;;8.73;2.55;;;12.90;79.80;;;;;;4976975;28;20018;-84
2022/05/04 00:58:55;;;;;;;10.20;2.50;;;12.90;79.90;;;;;;4976329;28;20084;-84
2022/05/04 01:01:26;;;;;;;9.32;2.60;;;12.90;79.90;;;;;;4976595;28;20031;-84
2022/05/04 01:03:51;;;;;;;;;;;12.90;79.90;;;;;;4961884;28;20039;-84
2022/05/04 01:06:17;;;;;;;7.70;2.50;;;12.80;80.00;;;;;;4997027;28;20418;-84
2022/05/04 01:08:43;;;;;;;7.07;2.55;;;12.80;80.00;;;;;;4979977;28;20066;-85
2022/05/04 01:11:08;;;;;;;9.27;2.35;;;12.80;80.10;;;;;;4979882;28;20053;-84
2022/05/04 01:13:34;;;;;;;8.45;2.40;;;12.70;80.10;;;;;;4963683;28;20121;-84
2022/05/04 01:16:00;;;;;;;8.57;2.65;;;12.80;80.20;;;;;;4979675;28;20614;-84
2022/05/04 01:18:25;;;;;;;8.95;2.83;;;12.70;80.10;;;;;;4979833;28;20042;-84
2022/05/04 01:20:51;;;;;;;8.85;2.47;;;12.70;80.10;;;;;;4979847;28;20034;-85
2022/05/04 01:23:17;;;;;;;9.85;2.72;;;12.70;80.10;;;;;;4947873;28;20030;-85
2022/05/04 01:25:43;;;;;;;7.68;2.85;;;12.70;80.30;;;;;;4963829;28;20379;-85
2022/05/04 01:28:09;;;;;;;6.78;2.50;;;12.70;80.40;;;;;;4997292;28;20038;-84
2022/05/04 01:30:35;;;;;;;10.48;2.60;;;12.70;80.30;;;;;;4979899;28;20030;-84
2022/05/04 01:33:01;;;;;;;9.60;2.65;;;12.70;80.30;;;;;;4979792;28;20026;-84
2022/05/04 01:35:27;;;;;;;9.15;2.65;;;12.60;80.30;;;;;;4979624;28;20037;-84
2022/05/04 01:37:53;;;;;;;9.15;2.33;;;12.60;80.40;;;;;;4997387;28;20026;-84
2022/05/04 01:40:19;;;;;;;9.70;2.63;;;12.60;80.40;;;;;;4979995;28;20138;-84
2022/05/04 01:42:44;;;;;;;14.07;3.60;;;12.60;80.50;;;;;;4981514;28;20073;-85
2022/05/04 01:45:10;;;;;;;11.48;2.75;;;12.60;80.60;;;;;;5002730;28;20010;-85
2022/05/04 01:47:36;;;;;;;10.88;2.63;;;12.60;80.60;;;;;;4987123;28;20038;-84
2022/05/04 01:50:03;;;;;;;9.50;2.40;;;12.50;80.50;;;;;;5003942;28;20026;-83
2022/05/04 01:52:29;;;;;;;6.43;2.33;;;12.50;80.60;;;;;;5003822;28;20053;-84
2022/05/04 01:54:55;;;;;;;13.48;2.60;;;12.50;80.60;;;;;;4985999;28;20046;-85
2022/05/04 01:57:21;;;;;;;7.63;2.00;;;12.50;80.60;;;;;;4985767;28;20049;-85
2022/05/04 01:59:47;;;;;;;9.27;2.45;;;12.50;80.70;;;;;;5001041;28;20136;-87
2022/05/04 02:02:13;;;;;;;9.88;2.90;;;12.50;80.70;;;;;;4995439;28;20038;-84
2022/05/04 02:04:40;;;;;;;11.38;3.08;;;12.40;80.60;;;;;;5000478;28;20113;-84
2022/05/04 02:07:09;;;;;;;10.02;2.60;;;12.40;80.50;;;;;;4963336;28;20085;-84
2022/05/04 02:09:39;;;;;;;10.85;2.55;;;12.40;80.60;;;;;;4996631;28;20109;-84
2022/05/04 02:12:06;;;;;;;9.43;2.63;;;12.40;80.70;;;;;;4979036;28;20181;-84
2022/05/04 02:14:32;;;;;;;8.85;2.78;;;12.40;80.80;;;;;;4978937;28;20022;-84
2022/05/04 02:16:59;;;;;;;9.85;2.85;;;12.40;80.80;;;;;;4978460;28;20085;-84
2022/05/04 02:19:25;;;;;;;7.68;2.40;;;12.40;80.80;;;;;;4962900;28;20172;-83
2022/05/04 02:21:50;;;;;;;8.25;2.67;;;12.30;80.90;;;;;;4978836;28;20038;-85
2022/05/04 02:24:16;;;;;;;8.60;2.85;;;12.30;80.90;;;;;;4995788;28;20114;-84
2022/05/04 02:26:42;;;;;;;7.60;2.72;;;12.30;81.10;;;;;;4978490;28;20487;-84
2022/05/04 02:29:08;;;;;;;9.63;2.25;;;12.30;81.10;;;;;;4961764;28;20036;-84
2022/05/04 02:31:33;;;;;;;7.95;2.33;;;12.30;81.10;;;;;;4978114;28;20037;-84
2022/05/04 02:33:59;;;;;;;11.23;2.33;;;12.30;81.20;;;;;;4962136;28;20049;-84
2022/05/04 02:39:08;;;;;;;9.00;2.40;;;12.20;81.30;;;;;;4966908;28;20041;-84
2022/05/04 02:41:34;;;;;;;10.40;2.63;;;12.20;81.30;;;;;;4978080;28;20034;-83
2022/05/04 02:44:02;;;;;;;12.75;2.92;;;12.20;81.40;;;;;;4978266;28;20038;-84
2022/05/04 02:46:30;;;;;;;10.82;2.33;;;12.20;81.50;;;;;;4978119;28;20034;-84
2022/05/04 02:48:56;;;;;;;10.88;2.50;;;12.20;81.50;;;;;;4995380;28;20521;-84
2022/05/04 02:51:22;;;;;;;14.60;3.08;;;12.20;81.60;;;;;;4995146;28;20466;-84
2022/05/04 02:53:48;;;;;;;11.95;2.53;;;12.20;81.50;;;;;;4962263;28;20037;-84
2022/05/04 02:56:15;;;;;;;8.32;2.63;;;12.20;81.60;;;;;;4961762;28;20488;-84
2022/05/04 02:58:42;;;;;;;7.97;2.33;;;12.10;81.40;;;;;;4995229;28;20058;-84
2022/05/04 03:04:07;;;;;;;12.25;2.53;;;12.10;81.50;;;;;;4980516;28;20053;-85
2022/05/04 03:06:37;;;;;;;8.80;2.47;;;12.10;81.50;;;;;;4995323;28;20175;-84
2022/05/04 03:09:04;;;;;;;9.25;2.60;;;12.10;81.60;;;;;;4961335;28;20072;-84
2022/05/04 03:14:14;;;;;;;10.88;2.50;;;12.10;81.50;;;;;;4966497;28;20101;-84
2022/05/04 03:16:39;;;;;;;9.68;2.60;;;12.10;81.60;;;;;;4945842;28;20019;-84
2022/05/04 03:19:06;;;;;;;11.95;3.20;;;12.10;81.60;;;;;;4961052;28;20038;-84
2022/05/04 03:21:33;;;;;;;9.43;3.10;;;12.00;81.50;;;;;;4995249;28;20466;-84
2022/05/04 03:23:59;;;;;;;11.20;2.83;;;12.00;81.50;;;;;;4993277;28;20022;-84
2022/05/04 03:26:25;;;;;;;7.88;2.60;;;12.00;81.60;;;;;;5005875;28;20092;-84
2022/05/04 03:28:51;;;;;;;7.30;2.15;;;12.00;81.40;;;;;;4978063;28;20030;-84
2022/05/04 03:31:17;;;;;;;9.98;2.50;;;12.00;81.30;;;;;;4961390;28;20030;-85
2022/05/04 03:33:43;;;;;;;9.02;2.40;;;12.00;81.20;;;;;;4977061;28;20516;-84
2022/05/04 03:36:09;;;;;;;13.10;2.88;;;12.00;81.40;;;;;;4994912;28;20022;-84
2022/05/04 03:38:35;;;;;;;9.48;2.80;;;11.90;81.40;;;;;;4977325;28;20438;-84
2022/05/04 03:41:00;;;;;;;12.13;2.63;;;11.90;81.40;;;;;;4977444;28;20533;-84
2022/05/04 03:43:26;;;;;;;10.43;2.30;;;11.90;81.50;;;;;;4976852;28;20065;-84
2022/05/04 03:45:52;;;;;;;8.25;2.70;;;11.90;81.50;;;;;;4961406;28;20029;-84
2022/05/04 03:48:18;;;;;;;7.70;2.30;;;11.90;81.60;;;;;;4976994;28;20498;-84
2022/05/04 03:50:45;;;;;;;9.65;2.72;;;11.80;81.60;;;;;;4961336;28;20058;-84
2022/05/04 03:53:11;;;;;;;10.13;3.47;;;11.80;81.70;;;;;;4977728;28;20057;-84
2022/05/04 03:55:37;;;;;;;8.60;2.53;;;11.80;81.70;;;;;;4977221;28;20049;-84
2022/05/04 03:58:03;;;;;;;7.47;2.53;;;11.80;81.70;;;;;;4976900;28;20411;-84
2022/05/04 04:00:28;;;;;;;10.82;2.58;;;11.80;81.70;;;;;;4960951;28;20038;-84
2022/05/04 04:02:54;;;;;;;11.68;2.55;;;11.80;81.80;;;;;;4946400;28;20066;-84
2022/05/04 04:05:19;;;;;;;14.50;2.60;;;11.80;81.80;;;;;;4945070;28;20030;-84
2022/05/04 04:07:45;;;;;;;14.85;3.40;;;11.80;81.90;;;;;;4978305;28;20030;-84
2022/05/04 04:10:11;;;;;;;12.45;2.65;;;11.70;81.90;;;;;;4994166;28;20506;-84
2022/05/04 04:12:36;;;;;;;8.55;2.28;;;11.70;81.80;;;;;;4961912;28;20034;-83
2022/05/04 04:15:03;;;;;;;13.18;2.85;;;11.70;81.90;;;;;;4977126;28;20023;-84
2022/05/04 04:17:29;;;;;;;10.32;2.78;;;11.70;82.10;;;;;;4961427;28;20052;-86
2022/05/04 04:22:39;;;;;;;9.02;2.17;;;11.70;82.00;;;;;;4994220;28;20053;-84
2022/05/04 04:25:05;;;;;;;11.45;2.70;;;11.60;82.00;;;;;;4977018;28;20472;-84
2022/05/04 04:27:35;;;;;;;8.35;2.40;;;11.60;82.00;;;;;;4962455;28;20034;-84
2022/05/04 04:30:01;;;;;;;9.50;3.15;;;11.60;82.10;;;;;;4977591;28;20065;-85
2022/05/04 04:32:27;;;;;;;9.70;2.58;;;11.60;82.10;;;;;;4960811;28;20054;-84
2022/05/04 04:34:52;;;;;;;11.75;3.20;;;11.60;82.20;;;;;;4976526;28;20125;-84
2022/05/04 04:37:18;;;;;;;12.02;3.05;;;11.60;82.10;;;;;;4976002;28;20458;-84
2022/05/04 04:39:44;;;;;;;8.93;3.38;;;11.50;82.10;;;;;;4979190;28;20066;-84
2022/05/04 04:42:12;;;;;;;15.80;3.42;;;11.50;82.30;;;;;;4979886;28;20180;-84
2022/05/04 04:44:38;;;;;;;12.15;3.08;;;11.50;82.30;;;;;;4964605;28;20394;-84
2022/05/04 04:47:04;;;;;;;13.63;3.10;;;11.50;82.30;;;;;;4980224;28;20037;-84
2022/05/04 04:49:30;;;;;;;10.02;2.85;;;11.50;82.30;;;;;;4964111;28;20037;-84
2022/05/04 04:51:56;;;;;;;9.02;2.75;;;11.40;82.40;;;;;;4964113;28;20026;-84
2022/05/04 04:54:21;;;;;;;9.43;2.72;;;11.40;82.50;;;;;;4980203;28;20026;-84
2022/05/04 04:56:47;;;;;;;9.20;2.95;;;11.40;82.60;;;;;;4980297;28;20391;-84
2022/05/04 04:59:13;;;;;;;8.65;2.92;;;11.40;82.80;;;;;;4964026;28;20033;-84
2022/05/04 05:01:39;;;;;;;13.70;3.10;;;11.30;82.80;;;;;;4997247;28;20482;-84
2022/05/04 05:04:04;;;;;;;13.70;3.70;;;11.30;83.10;;;;;;4947859;28;20033;-85
2022/05/04 05:06:30;;;;;;;11.27;3.05;;;11.40;83.20;;;;;;4964390;28;20049;-84
2022/05/04 05:08:56;;;;;;;11.50;3.28;;;11.30;83.20;;;;;;4963914;28;20031;-84
2022/05/04 05:11:22;;;;;;;11.88;3.50;;;11.30;83.50;;;;;;4963726;28;20041;-84
2022/05/04 05:16:31;;;;;;;11.18;2.78;;;11.30;83.90;;;;;;4997329;28;20073;-84
2022/05/04 05:18:57;;;;;;;12.73;3.40;;;11.30;84.00;;;;;;4966524;28;20066;-84
2022/05/04 05:21:23;;;;;;;11.80;3.25;;;11.30;84.10;;;;;;4967019;28;20050;-84
2022/05/04 05:23:48;;;;;;;9.63;2.58;;;11.30;84.30;;;;;;4964650;28;20387;-83
2022/05/04 05:26:14;;;;;;;12.23;3.28;;;11.20;84.40;;;;;;4971962;28;20049;-83
2022/05/04 05:28:40;;;;;;;13.40;3.25;;;11.30;84.60;;;;;;4985208;28;20045;-84
2022/05/04 05:31:05;;;;;;;8.50;2.67;;;11.30;84.80;;;;;;4949243;28;20132;-88
2022/05/04 05:33:31;;;;;;;9.35;3.22;;;11.30;84.90;;;;;;4963039;28;20113;-84
2022/05/04 05:35:56;;;;;;;9.85;3.47;;;11.30;85.10;;;;;;4947366;28;20034;-84
2022/05/04 05:38:25;;;;;;;13.15;3.17;;;11.30;85.10;;;;;;4963116;28;20395;-84
2022/05/04 05:40:51;;;;;;;9.77;2.90;;;11.30;85.20;;;;;;4963356;28;20057;-84
2022/05/04 05:43:16;;;;;;;10.60;2.80;;;11.30;85.10;;;;;;4943429;28;20061;-84
2022/05/04 05:45:42;;;;;;;8.50;2.95;;;11.30;85.00;;;;;;4944679;28;20043;-84
2022/05/04 05:48:07;;;;;;;9.63;2.88;;;11.30;84.90;;;;;;4976726;28;20058;-86
2022/05/04 05:50:36;;;;;;;10.70;2.92;;;11.30;84.70;;;;;;4958919;28;20117;-84
2022/05/04 05:53:03;;;;;;;10.15;2.88;;;11.30;84.70;;;;;;4975663;28;20053;-84
2022/05/04 05:55:30;;;;;;;8.70;3.10;;;11.30;84.60;;;;;;4959625;28;20023;-84
2022/05/04 05:57:56;;;;;;;8.50;3.00;;;11.30;84.70;;;;;;4967280;28;20086;-84
2022/05/04 06:00:21;;;;;;;10.43;3.38;;;11.30;84.70;;;;;;4969065;28;20114;-84
2022/05/04 06:02:47;;;;;;;7.13;2.80;;;11.30;84.50;;;;;;4959684;28;20034;-84
2022/05/04 06:05:13;;;;;;;9.68;3.05;;;11.30;84.50;;;;;;4975484;28;20027;-84
2022/05/04 06:07:40;;;;;;;8.30;3.10;;;11.30;84.60;;;;;;4975301;28;20030;-85
2022/05/04 06:10:06;;;;;;;9.23;2.72;;;11.30;84.40;;;;;;4977427;28;20039;-83
2022/05/04 06:12:32;;;;;;;7.90;2.55;;;11.30;84.40;;;;;;4975595;28;20023;-83
2022/05/04 06:14:57;;;;;;;10.88;2.92;;;11.40;85.20;;;;;;4942809;28;20026;-85
2022/05/04 06:17:23;;;;;;;9.18;2.92;;;11.40;84.70;;;;;;4975766;28;20070;-84
2022/05/04 06:19:49;;;;;;;12.15;3.67;;;11.40;84.50;;;;;;4976114;28;20043;-84
2022/05/04 06:22:15;;;;;;;9.90;3.25;;;11.40;84.60;;;;;;4959572;28;20027;-85
2022/05/04 06:24:40;;;;;;;8.95;2.88;;;11.40;84.70;;;;;;4976008;28;20026;-84
2022/05/04 06:27:06;;;;;;;9.90;2.85;;;11.40;84.90;;;;;;4959914;28;20066;-84
2022/05/04 06:35:05;;;;;;;7.55;2.72;;;11.50;85.20;;;;;;4977065;28;20037;-84
2022/05/04 06:37:31;;;;;;;7.38;2.92;;;11.50;85.30;;;;;;4975382;28;20378;-85
2022/05/04 06:39:57;;;;;;;9.32;3.80;;;11.60;85.70;;;;;;4975793;28;20058;-83
2022/05/04 06:42:28;;;;;;;8.18;2.83;;;11.60;85.80;;;;;;4981775;28;20093;-84
2022/05/04 06:44:57;;;;;;;13.88;3.95;;;11.60;86.00;;;;;;4980093;28;20054;-84
2022/05/04 06:47:24;;;;;;;13.75;3.50;;;11.60;86.10;;;;;;4978778;28;20042;-84
2022/05/04 06:49:50;;;;;;;10.98;3.17;;;11.70;85.60;;;;;;4977977;28;20038;-83
2022/05/04 06:52:15;;;;;;;11.65;2.90;;;11.60;85.30;;;;;;4978316;28;20042;-84
2022/05/04 06:54:42;;;;;;;9.48;2.72;;;11.70;85.20;;;;;;4979469;28;20046;-83
2022/05/04 06:57:08;;;;;;;8.10;2.80;;;11.70;85.10;;;;;;4977623;28;20382;-83
2022/05/04 06:59:35;;;;;;;8.98;2.70;;;11.80;84.90;;;;;;4962432;28;20038;-83
2022/05/04 07:02:01;;;;;;;9.00;3.15;;;11.80;84.90;;;;;;4963558;28;20030;-82
2022/05/04 07:04:27;;;;;;;7.75;2.63;;;11.80;85.10;;;;;;4952767;28;20029;-83
2022/05/04 07:06:53;;;;;;;11.48;2.95;;;11.90;85.20;;;;;;4965047;28;20455;-83
2022/05/04 07:09:18;;;;;;;9.18;2.47;;;11.90;85.30;;;;;;4979223;28;20030;-83
2022/05/04 07:11:44;;;;;;;7.90;2.63;;;12.00;85.40;;;;;;4960807;28;20104;-82
2022/05/04 07:14:10;;;;;;;10.93;3.28;;;12.00;85.30;;;;;;4994522;28;20027;-84
2022/05/04 07:16:37;;;;;;;7.57;2.70;;;12.10;85.30;;;;;;4976715;28;20352;-83
2022/05/04 07:19:02;;;;;;;10.10;2.60;;;12.20;85.10;;;;;;4994192;28;20030;-83
2022/05/04 07:21:28;;;;;;;9.65;2.70;;;12.20;84.60;;;;;;4976368;28;20569;-83
2022/05/04 07:23:54;;;;;;;12.20;2.95;;;12.20;84.20;;;;;;4977010;28;20027;-83
2022/05/04 07:26:20;;;;;;;8.85;2.88;;;12.30;83.80;;;;;;4982709;28;20022;-84
2022/05/04 07:28:45;;;;;;;6.78;2.50;;;12.30;83.30;;;;;;4977137;28;20069;-84
2022/05/04 07:31:11;;;;;;;9.88;2.75;;;12.40;83.50;;;;;;4960815;28;20034;-84
2022/05/04 07:33:36;;;;;;;9.48;2.70;;;12.40;83.40;;;;;;4944690;28;20053;-84
2022/05/04 07:36:03;;;;;;;6.90;2.50;;;12.50;83.40;;;;;;4994375;28;20030;-83
2022/05/04 07:38:29;;;;;;;10.88;2.88;;;12.50;82.90;;;;;;4976288;28;20039;-85
2022/05/04 07:43:38;;;;;;;10.85;3.40;;;12.70;83.20;;;;;;4974321;28;20080;-83
2022/05/04 07:46:04;;;;;;;7.85;3.40;;;12.70;83.00;;;;;;4944864;28;20062;-83
2022/05/04 07:48:30;;;;;;;8.77;2.88;;;12.80;82.80;;;;;;4981574;28;20398;-84
2022/05/04 07:50:55;;;;;;;10.18;2.90;;;12.80;82.40;;;;;;4945050;28;20029;-85
2022/05/04 07:53:21;;;;;;;6.72;2.72;;;12.90;82.10;;;;;;4961023;28;20066;-85
2022/05/04 07:55:47;;;;;;;8.15;3.13;;;13.00;81.80;;;;;;4945141;28;20180;-84
2022/05/04 07:58:13;;;;;;;7.70;2.42;;;13.00;81.30;;;;;;4994639;28;20026;-83
2022/05/04 08:06:06;;;;;;;8.68;2.78;;;13.30;80.10;;;;;;4979506;28;20046;-84
2022/05/04 08:08:32;;;;;;;8.90;2.85;;;13.30;80.10;;;;;;4960438;28;20458;-84
2022/05/04 08:10:58;;;;;;;6.47;2.53;;;13.40;80.10;;;;;;4976518;28;20470;-84
2022/05/04 08:13:23;;;;;;;7.30;2.85;;;13.50;80.50;;;;;;4975827;28;20034;-84
2022/05/04 08:15:49;;;;;;;7.25;3.00;;;13.60;80.60;;;;;;4960796;28;20371;-83
2022/05/04 08:18:16;;;;;;;6.88;2.50;;;13.60;80.30;;;;;;4944071;28;20026;-84
2022/05/04 08:20:42;;;;;;;8.73;3.00;;;13.80;80.80;;;;;;4959599;28;20057;-85
2022/05/04 08:23:09;;;;;;;5.78;2.60;;;13.90;81.00;;;;;;4993267;28;20030;-83
2022/05/04 08:25:35;;;;;;;8.27;3.00;;;13.90;80.80;;;;;;4976377;28;20053;-83
2022/05/04 08:28:01;;;;;;;6.93;2.75;;;14.00;80.40;;;;;;4976700;28;20041;-82
2022/05/04 08:30:27;;;;;;;9.55;2.83;;;14.10;80.10;;;;;;4976702;28;20117;-83
2022/05/04 08:32:53;;;;;;;9.63;2.97;;;14.20;79.90;;;;;;4976346;28;20034;-83
2022/05/04 08:35:19;;;;;;;8.18;2.80;;;14.30;79.30;;;;;;4944451;28;20328;-83
2022/05/04 08:37:45;;;;;;;7.68;3.10;;;14.40;79.30;;;;;;4993135;28;20414;-82
2022/05/04 08:40:12;;;;;;;8.63;2.75;;;14.40;79.40;;;;;;4976070;28;20407;-83
2022/05/04 08:42:42;;;;;;;3.97;2.15;;;14.50;79.10;;;;;;4975712;28;20055;-84
2022/05/04 08:45:11;;;;;;;4.82;2.22;;;14.60;79.30;;;;;;4976367;28;20019;-82
2022/05/04 08:47:39;;;;;;;6.15;2.38;;;14.70;78.90;;;;;;4960311;28;20030;-83
2022/05/04 08:50:10;;;;;;;5.90;2.38;;;14.80;78.90;;;;;;4977296;28;20041;-82
2022/05/04 08:52:40;;;;;;;7.18;2.28;;;14.80;78.50;;;;;;4994903;28;20081;-83
2022/05/04 08:55:07;;;;;;;8.73;2.67;;;14.90;78.50;;;;;;5003199;28;20018;-83
2022/05/04 08:57:33;;;;;;;10.38;2.75;;;15.00;78.20;;;;;;4969422;28;20109;-83
2022/05/04 08:59:58;;;;;;;12.52;3.45;;;15.10;77.90;;;;;;4981583;28;20034;-82
2022/05/04 09:02:24;;;;;;;6.93;2.60;;;15.20;77.20;;;;;;4969451;28;20026;-89
2022/05/04 09:04:50;;;;;;;5.95;2.22;;;15.20;77.00;;;;;;4982546;28;20026;-82
2022/05/04 09:07:26;;;;;;;5.32;2.20;;;15.30;77.10;;;;;;4978820;28;20053;-81
2022/05/04 09:09:52;;;;;;;6.68;2.45;;;15.40;77.40;;;;;;4977110;28;20037;-81
2022/05/04 09:12:18;;;;;;;6.57;2.60;;;15.40;77.10;;;;;;4994470;28;20023;-81
2022/05/04 09:14:44;;;;;;;5.57;2.55;;;15.50;76.40;;;;;;4976549;28;20026;-82
2022/05/04 09:17:11;;;;;;;6.97;2.38;;;15.50;75.60;;;;;;4976761;28;20391;-82
2022/05/04 09:19:38;;;;;;;6.93;2.70;;;15.50;75.30;;;;;;4976718;28;20478;-81
2022/05/04 09:22:15;;;;;;;5.40;2.30;;;15.60;74.90;;;;;;4944709;28;20034;-81
2022/05/04 09:24:45;;;;;;;7.82;3.47;;;15.60;74.80;;;;;;4977466;28;20054;-82
2022/05/04 09:27:11;;;;;;;7.35;2.60;;;15.70;74.60;;;;;;4980082;28;20049;-81
2022/05/04 09:29:42;;;;;;;7.25;2.50;;;15.70;72.80;;;;;;4964017;28;20058;-82
2022/05/04 09:32:15;;;;;;;8.05;2.85;;;15.70;72.80;;;;;;4979521;28;20034;-81
2022/05/04 09:34:41;;;;;;;9.25;3.13;;;15.80;74.00;;;;;;4979330;28;20045;-84
2022/05/04 09:45:37;;;;;;;8.70;2.05;;;16.10;74.80;;;;;;4996632;28;20154;-82
2022/05/04 09:48:04;;;;;;;6.15;2.60;;;16.10;75.20;;;;;;4979136;28;20057;-82
2022/05/04 09:50:37;;;;;;;7.95;2.50;;;16.20;75.30;;;;;;4978829;28;20470;-82
2022/05/04 09:53:02;;;;;;;5.97;3.08;;;16.30;75.10;;;;;;4978608;28;20018;-81
2022/05/04 09:55:29;;;;;;;6.85;2.90;;;16.40;75.10;;;;;;4978800;28;20092;-81
2022/05/04 09:57:56;;;;;;;8.73;2.63;;;16.40;74.50;;;;;;4962699;28;20026;-81
2022/05/04 10:00:24;;;;;;;6.95;2.60;;;16.50;74.00;;;;;;4979053;28;20030;-81
2022/05/04 10:02:54;;;;;;;5.78;2.20;;;16.60;73.60;;;;;;4979038;28;20132;-83
2022/05/04 10:05:21;;;;;;;5.72;2.70;;;16.60;73.30;;;;;;4978918;28;20026;-82
2022/05/04 10:07:51;;;;;;;6.95;2.63;;;16.70;73.40;;;;;;4946759;28;20124;-81
2022/05/04 10:10:19;;;;;;;7.07;2.75;;;16.70;72.80;;;;;;4979000;28;20430;-81
2022/05/04 10:12:44;;;;;;;8.50;2.90;;;16.80;72.60;;;;;;4978848;28;20068;-81
2022/05/04 10:15:12;;;;;;;8.70;3.10;;;16.90;72.80;;;;;;4978742;28;20045;-81
2022/05/04 10:18:05;;;;;;;9.70;3.05;;;16.90;72.50;;;;;;4996080;28;20110;-80
2022/05/04 10:20:54;;;;;;;9.35;3.58;;;17.00;72.80;;;;;;4978567;28;20471;-86
2022/05/04 10:23:27;;;;;;;5.38;2.67;;;17.00;72.60;;;;;;4978539;28;20378;-82
2022/05/04 10:25:57;;;;;;;8.25;3.08;;;17.10;72.60;;;;;;4978163;28;20121;-81
2022/05/04 10:28:23;;;;;;;10.93;3.90;;;17.20;72.30;;;;;;4962015;28;20045;-81
2022/05/04 10:30:57;;;;;;;9.30;4.15;;;17.30;71.20;;;;;;4995469;28;20525;-81
2022/05/04 10:33:25;;;;;;;11.32;4.07;;;17.30;70.00;;;;;;4978237;28;20114;-82
2022/05/04 10:35:51;;;;;;;7.60;4.18;;;17.30;69.80;;;;;;4977187;28;20018;-81
2022/05/04 10:38:30;;;;;;;11.05;4.43;;;17.40;69.50;;;;;;4994862;28;20061;-81
2022/05/04 10:41:02;;;;;;;7.80;3.25;;;17.40;69.20;;;;;;4977846;28;20030;-82
2022/05/04 10:43:38;;;;;;;9.35;3.83;;;17.40;69.50;;;;;;4977626;28;20491;-81
2022/05/04 10:46:08;;;;;;;7.95;3.45;;;17.50;69.80;;;;;;4978212;28;20060;-81
2022/05/04 10:48:34;;;;;;;8.52;4.00;;;17.50;69.40;;;;;;4977825;28;20223;-89
2022/05/04 10:51:35;;;;;;;10.07;4.43;;;17.60;69.20;;;;;;4977632;28;20034;-81
2022/05/04 10:54:04;;;;;;;9.05;4.07;;;17.60;68.00;;;;;;4972567;28;20088;-82
2022/05/04 10:56:36;;;;;;;10.25;4.05;;;17.60;66.50;;;;;;4976792;28;20436;-82
2022/05/04 10:59:02;;;;;;;7.18;3.70;;;17.60;66.50;;;;;;4985427;28;20029;-82
2022/05/04 11:01:37;;;;;;;9.77;3.90;;;17.60;66.90;;;;;;4994988;28;20046;-83
2022/05/04 11:04:13;;;;;;;7.68;3.78;;;17.60;67.20;;;;;;4979679;28;20021;-82
2022/05/04 11:06:54;;;;;;;8.40;4.60;;;17.70;67.30;;;;;;4979473;28;20030;-83
2022/05/04 11:09:20;;;;;;;;;;;17.80;67.40;;;;;;4978443;28;20026;-82
2022/05/04 11:11:51;;;;;;;8.25;3.60;;;17.80;66.70;;;;;;4995282;28;20269;-82
2022/05/04 11:14:19;;;;;;;9.50;4.30;;;17.80;67.30;;;;;;4994193;28;20093;-83
2022/05/04 11:16:45;;;;;;;8.23;4.00;;;17.90;67.70;;;;;;4978110;28;20450;-82
2022/05/04 11:19:17;;;;;;;11.30;5.03;;;18.00;67.60;;;;;;4978705;28;20109;-82
2022/05/04 11:21:43;;;;;;;10.05;4.25;;;18.10;66.90;;;;;;4977621;28;20034;-83
2022/05/04 11:24:11;;;;;;;11.05;3.80;;;18.10;67.30;;;;;;4994800;28;20034;-82
2022/05/04 11:26:40;;;;;;;11.98;4.55;;;18.20;66.60;;;;;;4977044;28;20048;-82
2022/05/04 11:29:10;;;;;;;10.30;4.40;;;18.30;66.90;;;;;;4977091;28;20367;-82
2022/05/04 11:31:37;;;;;;;7.53;3.90;;;18.40;66.70;;;;;;4995069;28;20061;-82
2022/05/04 11:34:03;;;;;;;11.30;4.57;;;18.40;66.30;;;;;;4977843;28;20122;-82
2022/05/04 11:36:29;;;;;;;9.73;5.25;;;18.50;65.70;;;;;;4977472;28;20504;-81
2022/05/04 11:38:54;;;;;;;8.23;4.40;;;18.50;65.80;;;;;;4978058;28;20038;-84
2022/05/04 11:41:20;;;;;;;7.75;3.78;;;18.60;65.70;;;;;;4977373;28;20414;-82
2022/05/04 11:43:49;;;;;;;9.20;3.85;;;18.70;66.20;;;;;;4977192;28;20050;-82
2022/05/04 11:46:15;;;;;;;9.77;4.28;;;18.70;66.20;;;;;;4994763;28;20022;-82
2022/05/04 11:48:47;;;;;;;11.82;4.22;;;18.80;65.90;;;;;;4944329;28;20038;-81
2022/05/04 11:51:16;;;;;;;7.95;4.50;;;18.90;65.50;;;;;;4977347;28;20022;-81
2022/05/04 11:53:42;;;;;;;8.57;3.95;;;19.00;65.00;;;;;;4995374;28;20030;-81
2022/05/04 11:56:09;;;;;;;9.90;3.72;;;19.10;64.60;;;;;;4994578;28;20104;-82
2022/05/04 11:58:37;;;;;;;9.68;3.97;;;19.10;64.90;;;;;;4977116;28;20505;-80
2022/05/04 12:01:06;;;;;;;9.77;3.80;;;19.20;64.90;;;;;;4976750;28;20077;-84
2022/05/04 12:03:37;;;;;;;7.82;4.03;;;19.30;64.30;;;;;;4976783;28;20027;-83
2022/05/04 12:06:05;;;;;;;8.30;4.40;;;19.40;63.90;;;;;;4977067;28;20073;-84
2022/05/04 12:08:32;;;;;;;8.82;4.03;;;19.40;62.80;;;;;;4977038;28;20034;-84
2022/05/04 12:10:59;;;;;;;9.52;4.13;;;19.50;62.50;;;;;;4976668;28;20027;-85
2022/05/04 12:13:25;;;;;;;9.98;4.38;;;19.50;62.10;;;;;;4976983;28;20022;-84
2022/05/04 12:15:55;;;;;;;7.93;4.15;;;19.60;61.80;;;;;;4960634;28;20085;-85
2022/05/04 12:18:30;;;;;;;10.40;4.47;;;19.60;61.40;;;;;;4976673;28;20117;-83
2022/05/04 12:20:56;;;;;;;9.68;3.88;;;19.70;61.30;;;;;;4969267;28;20277;-84
2022/05/04 12:23:22;;;;;;;8.45;3.78;;;19.70;61.30;;;;;;4993393;28;20014;-84
2022/05/04 12:25:48;;;;;;;8.52;4.35;;;19.70;61.90;;;;;;4996631;28;20023;-85
2022/05/04 12:28:14;;;;;;;9.07;4.45;;;19.80;62.00;;;;;;4965944;28;20042;-85
2022/05/04 12:33:37;;;;;;;6.85;3.70;;;20.00;61.50;;;;;;5003452;28;20050;-85
2022/05/04 12:36:07;;;;;;;9.55;4.03;;;20.10;61.70;;;;;;5000611;28;20033;-84
2022/05/04 12:38:36;;;;;;;11.38;5.40;;;20.20;61.50;;;;;;4983985;28;20037;-84
2022/05/04 12:41:04;;;;;;;12.40;5.07;;;20.20;60.80;;;;;;4981707;28;20241;-84
2022/05/04 12:43:35;;;;;;;8.50;4.10;;;20.30;60.20;;;;;;4993655;28;20046;-84
2022/05/04 12:46:02;;;;;;;10.23;4.53;;;20.30;59.80;;;;;;4976303;28;20034;-83
2022/05/04 12:48:28;;;;;;;7.97;4.10;;;20.40;59.40;;;;;;4976448;28;20026;-84
2022/05/04 12:50:55;;;;;;;8.43;3.97;;;20.40;59.20;;;;;;4976064;28;20038;-84
2022/05/04 12:53:25;;;;;;;7.97;4.07;;;20.50;58.80;;;;;;4993732;28;20141;-83
2022/05/04 12:58:36;;;;;;;11.63;4.53;;;20.60;58.60;;;;;;4993435;28;20085;-83
2022/05/04 13:01:04;;;;;;;8.63;4.32;;;20.70;58.40;;;;;;4996477;28;20030;-83
2022/05/04 13:03:30;;;;;;;10.38;4.60;;;20.70;58.40;;;;;;4997365;28;20101;-83
2022/05/04 13:05:55;;;;;;;8.75;4.30;;;20.80;58.50;;;;;;4979677;28;20062;-84
2022/05/04 13:08:21;;;;;;;10.55;5.20;;;20.90;58.60;;;;;;4979848;28;20041;-85
2022/05/04 13:10:48;;;;;;;9.30;4.55;;;20.90;58.30;;;;;;4979977;28;20033;-85
2022/05/04 13:13:16;;;;;;;10.73;5.05;;;21.00;57.90;;;;;;4979853;28;20034;-84
2022/05/04 13:15:41;;;;;;;7.88;4.35;;;21.00;56.40;;;;;;4980419;28;20027;-84
2022/05/04 13:18:08;;;;;;;10.48;4.53;;;21.00;56.70;;;;;;4979701;28;20031;-83
2022/05/04 13:20:34;;;;;;;8.70;4.30;;;21.10;57.40;;;;;;4979747;28;20023;-84
2022/05/04 13:23:00;;;;;;;10.20;4.30;;;21.10;57.20;;;;;;4979318;28;20037;-84